sensor_id;sensor_type;location;lat;lon;timestamp;pressure;altitude;pressure_sealevel;temperature;humidity
60240;BME280;46102;39.012;-7.064;2023-11-19T00:01:56;99190.44;;;15.37;100.00
60240;BME280;46102;39.012;-7.064;2023-11-19T00:03:58;99191.59;;;15.36;100.00
60240;BME280;46102;39.012;-7.064;2023-11-19T00:05:59;99186.06;;;15.36;100.00
60240;BME280;46102;39.012;-7.064;2023-11-19T00:08:00;99189.94;;;15.35;100.00
60240;BME280;46102;39.012;-7.064;2023-11-19T00:10:00;99181.66;;;15.35;100.00
60240;BME280;46102;39.012;-7.064;2023-11-19T00:12:10;99180.53;;;15.36;100.00
60240;BME280;46102;39.012;-7.064;2023-11-19T00:14:11;99167.38;;;15.33;100.00
60240;BME280;46102;39.012;-7.064;2023-11-19T00:16:12;99185.91;;;15.33;100.00
60240;BME280;46102;39.012;-7.064;2023-11-19T00:18:13;99181.06;;;15.30;100.00
60240;BME280;46102;39.012;-7.064;2023-11-19T00:20:19;99177.66;;;15.24;100.00
60240;BME280;46102;39.012;-7.064;2023-11-19T00:22:20;99180.28;;;15.20;100.00
60240;BME280;46102;39.012;-7.064;2023-11-19T00:24:22;99176.25;;;15.18;100.00
60240;BME280;46102;39.012;-7.064;2023-11-19T00:26:23;99166.81;;;15.19;100.00
60240;BME280;46102;39.012;-7.064;2023-11-19T00:28:27;99172.19;;;15.15;100.00
60240;BME280;46102;39.012;-7.064;2023-11-19T00:30:27;99177.25;;;15.13;100.00
60240;BME280;46102;39.012;-7.064;2023-11-19T00:32:28;99177.09;;;15.10;100.00
60240;BME280;46102;39.012;-7.064;2023-11-19T00:34:30;99173.53;;;15.09;100.00
60240;BME280;46102;39.012;-7.064;2023-11-19T00:36:30;99163.78;;;15.03;100.00
60240;BME280;46102;39.012;-7.064;2023-11-19T00:38:31;99166.41;;;14.99;100.00
60240;BME280;46102;39.012;-7.064;2023-11-19T00:40:32;99156.50;;;14.98;100.00
60240;BME280;46102;39.012;-7.064;2023-11-19T00:42:33;99159.25;;;14.98;100.00
60240;BME280;46102;39.012;-7.064;2023-11-19T00:44:33;99165.25;;;15.01;100.00
60240;BME280;46102;39.012;-7.064;2023-11-19T00:46:34;99161.03;;;15.03;100.00
60240;BME280;46102;39.012;-7.064;2023-11-19T00:48:35;99159.41;;;15.02;100.00
60240;BME280;46102;39.012;-7.064;2023-11-19T00:50:36;99161.34;;;15.02;100.00
60240;BME280;46102;39.012;-7.064;2023-11-19T00:52:37;99160.53;;;15.01;100.00
60240;BME280;46102;39.012;-7.064;2023-11-19T00:54:38;99158.25;;;15.03;100.00
60240;BME280;46102;39.012;-7.064;2023-11-19T00:56:39;99159.53;;;15.06;100.00
60240;BME280;46102;39.012;-7.064;2023-11-19T00:58:40;99152.41;;;15.05;100.00
60240;BME280;46102;39.012;-7.064;2023-11-19T01:00:41;99153.38;;;15.09;100.00
60240;BME280;46102;39.012;-7.064;2023-11-19T01:02:45;99149.47;;;15.10;100.00
60240;BME280;46102;39.012;-7.064;2023-11-19T01:04:46;99138.88;;;15.12;100.00
60240;BME280;46102;39.012;-7.064;2023-11-19T01:06:47;99144.56;;;15.15;100.00
60240;BME280;46102;39.012;-7.064;2023-11-19T01:08:47;99139.47;;;15.17;100.00
60240;BME280;46102;39.012;-7.064;2023-11-19T01:10:48;99142.72;;;15.19;100.00
60240;BME280;46102;39.012;-7.064;2023-11-19T01:12:49;99133.31;;;15.20;100.00
60240;BME280;46102;39.012;-7.064;2023-11-19T01:14:50;99136.06;;;15.20;100.00
60240;BME280;46102;39.012;-7.064;2023-11-19T01:16:51;99135.75;;;15.22;100.00
60240;BME280;46102;39.012;-7.064;2023-11-19T01:18:51;99138.84;;;15.20;100.00
60240;BME280;46102;39.012;-7.064;2023-11-19T01:20:52;99135.28;;;15.20;100.00
60240;BME280;46102;39.012;-7.064;2023-11-19T01:22:53;99140.31;;;15.18;100.00
60240;BME280;46102;39.012;-7.064;2023-11-19T01:24:54;99138.03;;;15.20;100.00
60240;BME280;46102;39.012;-7.064;2023-11-19T01:26:55;99128.91;;;15.19;100.00
60240;BME280;46102;39.012;-7.064;2023-11-19T01:28:58;99124.06;;;15.16;100.00
60240;BME280;46102;39.012;-7.064;2023-11-19T01:30:58;99118.38;;;15.13;100.00
60240;BME280;46102;39.012;-7.064;2023-11-19T01:32:59;99123.78;;;15.09;100.00
60240;BME280;46102;39.012;-7.064;2023-11-19T01:35:00;99119.38;;;15.08;100.00
60240;BME280;46102;39.012;-7.064;2023-11-19T01:37:01;99116.13;;;15.06;100.00
60240;BME280;46102;39.012;-7.064;2023-11-19T01:39:02;99130.63;;;15.03;100.00
60240;BME280;46102;39.012;-7.064;2023-11-19T01:41:04;99126.59;;;15.01;100.00
60240;BME280;46102;39.012;-7.064;2023-11-19T01:43:05;99124.31;;;15.03;100.00
60240;BME280;46102;39.012;-7.064;2023-11-19T01:45:06;99127.38;;;15.01;100.00
60240;BME280;46102;39.012;-7.064;2023-11-19T01:47:10;99124.81;;;14.96;100.00
60240;BME280;46102;39.012;-7.064;2023-11-19T01:49:11;99118.50;;;14.95;100.00
60240;BME280;46102;39.012;-7.064;2023-11-19T01:51:13;99122.06;;;14.96;100.00
60240;BME280;46102;39.012;-7.064;2023-11-19T01:53:17;99128.72;;;14.95;100.00
60240;BME280;46102;39.012;-7.064;2023-11-19T01:55:19;99131.81;;;14.93;100.00
60240;BME280;46102;39.012;-7.064;2023-11-19T01:57:22;99120.63;;;14.90;100.00
60240;BME280;46102;39.012;-7.064;2023-11-19T01:59:24;99126.50;;;14.88;100.00
60240;BME280;46102;39.012;-7.064;2023-11-19T02:01:27;99129.25;;;14.88;100.00
60240;BME280;46102;39.012;-7.064;2023-11-19T02:03:28;99125.34;;;14.89;100.00
60240;BME280;46102;39.012;-7.064;2023-11-19T02:05:29;99123.06;;;14.91;100.00
60240;BME280;46102;39.012;-7.064;2023-11-19T02:07:32;99119.00;;;14.89;100.00
60240;BME280;46102;39.012;-7.064;2023-11-19T02:09:33;99118.22;;;14.88;100.00
60240;BME280;46102;39.012;-7.064;2023-11-19T02:11:35;99114.13;;;14.86;100.00
60240;BME280;46102;39.012;-7.064;2023-11-19T02:13:37;99114.97;;;14.86;100.00
60240;BME280;46102;39.012;-7.064;2023-11-19T02:15:38;99118.53;;;14.87;100.00
60240;BME280;46102;39.012;-7.064;2023-11-19T02:17:39;99117.72;;;14.86;100.00
60240;BME280;46102;39.012;-7.064;2023-11-19T02:19:40;99123.25;;;14.86;100.00
60240;BME280;46102;39.012;-7.064;2023-11-19T02:21:40;99118.53;;;14.87;100.00
60240;BME280;46102;39.012;-7.064;2023-11-19T02:23:42;99116.56;;;14.87;100.00
60240;BME280;46102;39.012;-7.064;2023-11-19T02:25:47;99106.31;;;14.88;100.00
60240;BME280;46102;39.012;-7.064;2023-11-19T02:27:54;99110.56;;;14.85;100.00
60240;BME280;46102;39.012;-7.064;2023-11-19T02:29:56;99121.63;;;14.85;100.00
60240;BME280;46102;39.012;-7.064;2023-11-19T02:31:58;99108.97;;;14.84;100.00
60240;BME280;46102;39.012;-7.064;2023-11-19T02:33:59;99108.97;;;14.84;100.00
60240;BME280;46102;39.012;-7.064;2023-11-19T02:36:01;99107.81;;;14.85;100.00
60240;BME280;46102;39.012;-7.064;2023-11-19T02:38:05;99112.69;;;14.88;100.00
60240;BME280;46102;39.012;-7.064;2023-11-19T02:40:07;99108.28;;;14.87;100.00
60240;BME280;46102;39.012;-7.064;2023-11-19T02:42:09;99107.81;;;14.85;100.00
60240;BME280;46102;39.012;-7.064;2023-11-19T02:44:10;99113.66;;;14.84;100.00
60240;BME280;46102;39.012;-7.064;2023-11-19T02:46:13;99112.19;;;14.86;100.00
60240;BME280;46102;39.012;-7.064;2023-11-19T02:48:14;99103.91;;;14.86;100.00
60240;BME280;46102;39.012;-7.064;2023-11-19T02:50:17;99116.91;;;14.86;100.00
60240;BME280;46102;39.012;-7.064;2023-11-19T02:52:17;99107.47;;;14.87;100.00
60240;BME280;46102;39.012;-7.064;2023-11-19T02:54:19;99107.81;;;14.85;100.00
60240;BME280;46102;39.012;-7.064;2023-11-19T02:56:21;99106.19;;;14.84;100.00
60240;BME280;46102;39.012;-7.064;2023-11-19T02:58:30;99107.00;;;14.85;100.00
60240;BME280;46102;39.012;-7.064;2023-11-19T03:00:31;99097.75;;;14.81;100.00
60240;BME280;46102;39.012;-7.064;2023-11-19T03:02:40;99102.78;;;14.78;100.00
60240;BME280;46102;39.012;-7.064;2023-11-19T03:04:48;99097.94;;;14.75;100.00
60240;BME280;46102;39.012;-7.064;2023-11-19T03:06:49;99104.94;;;14.73;100.00
60240;BME280;46102;39.012;-7.064;2023-11-19T03:08:49;99096.66;;;14.73;100.00
60240;BME280;46102;39.012;-7.064;2023-11-19T03:10:50;99103.31;;;14.72;100.00
60240;BME280;46102;39.012;-7.064;2023-11-19T03:12:51;99098.94;;;14.71;100.00
60240;BME280;46102;39.012;-7.064;2023-11-19T03:14:52;99093.75;;;14.69;100.00
60240;BME280;46102;39.012;-7.064;2023-11-19T03:16:53;99095.22;;;14.67;100.00
60240;BME280;46102;39.012;-7.064;2023-11-19T03:18:54;99104.97;;;14.64;100.00
60240;BME280;46102;39.012;-7.064;2023-11-19T03:20:55;99100.09;;;14.61;100.00
60240;BME280;46102;39.012;-7.064;2023-11-19T03:22:56;99100.78;;;14.58;100.00
60240;BME280;46102;39.012;-7.064;2023-11-19T03:24:58;99092.97;;;14.60;100.00
60240;BME280;46102;39.012;-7.064;2023-11-19T03:26:59;99086.28;;;14.61;100.00
60240;BME280;46102;39.012;-7.064;2023-11-19T03:28:59;99085.50;;;14.61;100.00
60240;BME280;46102;39.012;-7.064;2023-11-19T03:31:04;99084.69;;;14.60;100.00
60240;BME280;46102;39.012;-7.064;2023-11-19T03:33:04;99088.59;;;14.59;100.00
60240;BME280;46102;39.012;-7.064;2023-11-19T03:35:06;99087.28;;;14.56;100.00
60240;BME280;46102;39.012;-7.064;2023-11-19T03:37:09;99086.50;;;14.56;100.00
60240;BME280;46102;39.012;-7.064;2023-11-19T03:39:10;99089.09;;;14.52;100.00
60240;BME280;46102;39.012;-7.064;2023-11-19T03:41:12;99084.19;;;14.49;100.00
60240;BME280;46102;39.012;-7.064;2023-11-19T03:43:13;99093.16;;;14.46;100.00
60240;BME280;46102;39.012;-7.064;2023-11-19T03:45:14;99086.00;;;14.45;100.00
60240;BME280;46102;39.012;-7.064;2023-11-19T03:47:16;99091.19;;;14.47;100.00
60240;BME280;46102;39.012;-7.064;2023-11-19T03:49:17;99086.47;;;14.47;100.00
60240;BME280;46102;39.012;-7.064;2023-11-19T03:51:19;99094.75;;;14.47;100.00
60240;BME280;46102;39.012;-7.064;2023-11-19T03:53:19;99093.16;;;14.46;100.00
60240;BME280;46102;39.012;-7.064;2023-11-19T03:55:20;99093.16;;;14.46;100.00
60240;BME280;46102;39.012;-7.064;2023-11-19T03:57:21;99095.91;;;14.46;100.00
60240;BME280;46102;39.012;-7.064;2023-11-19T03:59:22;99092.34;;;14.46;100.00
60240;BME280;46102;39.012;-7.064;2023-11-19T04:01:23;99091.03;;;14.43;100.00
60240;BME280;46102;39.012;-7.064;2023-11-19T04:03:24;99099.19;;;14.40;100.00
60240;BME280;46102;39.012;-7.064;2023-11-19T04:05:25;99088.81;;;14.36;100.00
60240;BME280;46102;39.012;-7.064;2023-11-19T04:07:26;99091.91;;;14.35;100.00
60240;BME280;46102;39.012;-7.064;2023-11-19T04:09:26;99094.50;;;14.31;100.00
60240;BME280;46102;39.012;-7.064;2023-11-19T04:11:27;99098.22;;;14.27;100.00
60240;BME280;46102;39.012;-7.064;2023-11-19T04:13:28;99086.22;;;14.23;100.00
60240;BME280;46102;39.012;-7.064;2023-11-19T04:15:29;99088.50;;;14.21;100.00
60240;BME280;46102;39.012;-7.064;2023-11-19T04:17:30;99081.53;;;14.23;100.00
60240;BME280;46102;39.012;-7.064;2023-11-19T04:19:30;99080.38;;;14.24;100.00
60240;BME280;46102;39.012;-7.064;2023-11-19T04:21:33;99084.94;;;14.20;100.00
60240;BME280;46102;39.012;-7.064;2023-11-19T04:23:34;99080.56;;;14.19;100.00
60240;BME280;46102;39.012;-7.064;2023-11-19T04:25:35;99072.63;;;14.18;100.00
60240;BME280;46102;39.012;-7.064;2023-11-19T04:27:36;99079.91;;;14.13;100.00
60240;BME280;46102;39.012;-7.064;2023-11-19T04:29:37;99078.63;;;14.11;100.00
60240;BME280;46102;39.012;-7.064;2023-11-19T04:31:38;99075.88;;;14.11;100.00
60240;BME280;46102;39.012;-7.064;2023-11-19T04:33:39;99069.88;;;14.09;100.00
60240;BME280;46102;39.012;-7.064;2023-11-19T04:35:40;99073.28;;;14.06;100.00
60240;BME280;46102;39.012;-7.064;2023-11-19T04:37:41;99078.31;;;14.04;100.00
60240;BME280;46102;39.012;-7.064;2023-11-19T04:39:44;99075.09;;;14.02;100.00
60240;BME280;46102;39.012;-7.064;2023-11-19T04:41:47;99075.09;;;14.02;100.00
60240;BME280;46102;39.012;-7.064;2023-11-19T04:43:49;99068.44;;;14.03;100.00
60240;BME280;46102;39.012;-7.064;2023-11-19T04:45:50;99074.75;;;14.03;100.00
60240;BME280;46102;39.012;-7.064;2023-11-19T04:47:51;99075.56;;;14.04;100.00
60240;BME280;46102;39.012;-7.064;2023-11-19T04:49:51;99081.75;;;14.01;100.00
60240;BME280;46102;39.012;-7.064;2023-11-19T04:51:52;99073.00;;;13.99;100.00
60240;BME280;46102;39.012;-7.064;2023-11-19T04:53:54;99077.34;;;14.00;100.00
60240;BME280;46102;39.012;-7.064;2023-11-19T04:55:54;99073.00;;;13.99;100.00
60240;BME280;46102;39.012;-7.064;2023-11-19T04:57:55;99078.34;;;13.95;100.00
60240;BME280;46102;39.012;-7.064;2023-11-19T04:59:56;99080.13;;;13.91;100.00
60240;BME280;46102;39.012;-7.064;2023-11-19T05:01:57;99067.47;;;13.90;100.00
60240;BME280;46102;39.012;-7.064;2023-11-19T05:03:58;99074.59;;;13.91;100.00
60240;BME280;46102;39.012;-7.064;2023-11-19T05:05:59;99074.59;;;13.91;100.00
60240;BME280;46102;39.012;-7.064;2023-11-19T05:08:00;99071.84;;;13.91;100.00
60240;BME280;46102;39.012;-7.064;2023-11-19T05:10:01;99069.44;;;13.89;100.00
60240;BME280;46102;39.012;-7.064;2023-11-19T05:12:04;99071.38;;;13.89;100.00
60240;BME280;46102;39.012;-7.064;2023-11-19T05:14:05;99074.78;;;13.86;100.00
60240;BME280;46102;39.012;-7.064;2023-11-19T05:16:06;99060.50;;;13.84;100.00
60240;BME280;46102;39.012;-7.064;2023-11-19T05:18:07;99063.59;;;13.82;100.00
60240;BME280;46102;39.012;-7.064;2023-11-19T05:20:10;99068.59;;;13.80;100.00
60240;BME280;46102;39.012;-7.064;2023-11-19T05:22:13;99063.75;;;13.77;100.00
60240;BME280;46102;39.012;-7.064;2023-11-19T05:24:14;99063.75;;;13.77;100.00
60240;BME280;46102;39.012;-7.064;2023-11-19T05:26:22;99055.97;;;13.79;100.00
60240;BME280;46102;39.012;-7.064;2023-11-19T05:28:23;99062.78;;;13.82;100.00
60240;BME280;46102;39.012;-7.064;2023-11-19T05:30:25;99066.34;;;13.82;100.00
60240;BME280;46102;39.012;-7.064;2023-11-19T05:32:25;99068.47;;;13.85;100.00
60240;BME280;46102;39.012;-7.064;2023-11-19T05:34:27;99065.72;;;13.85;100.00
60240;BME280;46102;39.012;-7.064;2023-11-19T05:36:28;99068.94;;;13.87;100.00
60240;BME280;46102;39.012;-7.064;2023-11-19T05:38:29;99074.78;;;13.86;100.00
60240;BME280;46102;39.012;-7.064;2023-11-19T05:40:30;99073.97;;;13.85;100.00
60240;BME280;46102;39.012;-7.064;2023-11-19T05:42:31;99073.97;;;13.85;100.00
60240;BME280;46102;39.012;-7.064;2023-11-19T05:44:31;99071.84;;;13.82;100.00
60240;BME280;46102;39.012;-7.064;2023-11-19T05:46:32;99074.63;;;13.82;100.00
60240;BME280;46102;39.012;-7.064;2023-11-19T05:48:33;99063.59;;;13.82;100.00
60240;BME280;46102;39.012;-7.064;2023-11-19T05:50:34;99067.19;;;13.83;100.00
60240;BME280;46102;39.012;-7.064;2023-11-19T05:52:34;99061.16;;;13.81;100.00
60240;BME280;46102;39.012;-7.064;2023-11-19T05:54:35;99064.72;;;13.81;100.00
60240;BME280;46102;39.012;-7.064;2023-11-19T05:56:38;99062.78;;;13.82;100.00
60240;BME280;46102;39.012;-7.064;2023-11-19T05:58:39;99061.66;;;13.83;100.00
60240;BME280;46102;39.012;-7.064;2023-11-19T06:00:41;99059.22;;;13.81;100.00
60240;BME280;46102;39.012;-7.064;2023-11-19T06:02:41;99062.78;;;13.82;100.00
60240;BME280;46102;39.012;-7.064;2023-11-19T06:04:43;99058.25;;;13.77;100.00
60240;BME280;46102;39.012;-7.064;2023-11-19T06:06:45;99058.91;;;13.74;100.00
60240;BME280;46102;39.012;-7.064;2023-11-19T06:08:46;99055.66;;;13.72;100.00
60240;BME280;46102;39.012;-7.064;2023-11-19T06:10:47;99054.38;;;13.69;100.00
60240;BME280;46102;39.012;-7.064;2023-11-19T06:12:51;99051.63;;;13.69;100.00
60240;BME280;46102;39.012;-7.064;2023-11-19T06:14:56;99051.63;;;13.69;100.00
60240;BME280;46102;39.012;-7.064;2023-11-19T06:16:57;99060.69;;;13.70;100.00
60240;BME280;46102;39.012;-7.064;2023-11-19T06:18:58;99047.72;;;13.70;100.00
60240;BME280;46102;39.012;-7.064;2023-11-19T06:20:58;99058.75;;;13.70;100.00
60240;BME280;46102;39.012;-7.064;2023-11-19T06:22:59;99057.75;;;13.66;100.00
60240;BME280;46102;39.012;-7.064;2023-11-19T06:25:00;99052.25;;;13.66;100.00
60240;BME280;46102;39.012;-7.064;2023-11-19T06:27:01;99058.59;;;13.67;100.00
60240;BME280;46102;39.012;-7.064;2023-11-19T06:29:03;99058.91;;;13.65;100.00
60240;BME280;46102;39.012;-7.064;2023-11-19T06:31:04;99058.25;;;13.68;100.00
60240;BME280;46102;39.012;-7.064;2023-11-19T06:33:05;99062.97;;;13.68;100.00
60240;BME280;46102;39.012;-7.064;2023-11-19T06:35:06;99053.88;;;13.67;100.00
60240;BME280;46102;39.012;-7.064;2023-11-19T06:37:07;99055.50;;;13.68;100.00
60240;BME280;46102;39.012;-7.064;2023-11-19T06:39:10;99051.13;;;13.67;100.00
60240;BME280;46102;39.012;-7.064;2023-11-19T06:41:13;99054.19;;;13.66;100.00
60240;BME280;46102;39.012;-7.064;2023-11-19T06:43:14;99052.09;;;13.63;100.00
60240;BME280;46102;39.012;-7.064;2023-11-19T06:45:15;99048.84;;;13.61;100.00
60240;BME280;46102;39.012;-7.064;2023-11-19T06:47:17;99056.63;;;13.59;100.00
60240;BME280;46102;39.012;-7.064;2023-11-19T06:49:18;99055.66;;;13.54;100.00
60240;BME280;46102;39.012;-7.064;2023-11-19T06:51:19;99057.94;;;13.52;100.00
60240;BME280;46102;39.012;-7.064;2023-11-19T06:53:20;99051.63;;;13.52;100.00
60240;BME280;46102;39.012;-7.064;2023-11-19T06:55:21;99060.53;;;13.49;100.00
60240;BME280;46102;39.012;-7.064;2023-11-19T06:57:21;99060.06;;;13.47;100.00
60240;BME280;46102;39.012;-7.064;2023-11-19T06:59:24;99061.16;;;13.46;100.00
60240;BME280;46102;39.012;-7.064;2023-11-19T07:01:24;99063.78;;;13.42;100.00
60240;BME280;46102;39.012;-7.064;2023-11-19T07:03:25;99066.53;;;13.42;100.00
60240;BME280;46102;39.012;-7.064;2023-11-19T07:05:26;99065.25;;;13.40;100.00
60240;BME280;46102;39.012;-7.064;2023-11-19T07:07:27;99064.41;;;13.39;100.00
60240;BME280;46102;39.012;-7.064;2023-11-19T07:09:28;99064.41;;;13.39;100.00
60240;BME280;46102;39.012;-7.064;2023-11-19T07:11:28;99063.91;;;13.37;100.00
60240;BME280;46102;39.012;-7.064;2023-11-19T07:13:29;99058.25;;;13.33;100.00
60240;BME280;46102;39.012;-7.064;2023-11-19T07:15:30;99067.81;;;13.36;100.00
60240;BME280;46102;39.012;-7.064;2023-11-19T07:17:31;99071.88;;;13.39;100.00
60240;BME280;46102;39.012;-7.064;2023-11-19T07:19:32;99065.56;;;13.38;100.00
60240;BME280;46102;39.012;-7.064;2023-11-19T07:21:33;99077.56;;;13.42;100.00
60240;BME280;46102;39.012;-7.064;2023-11-19T07:23:34;99076.91;;;13.45;100.00
60240;BME280;46102;39.012;-7.064;2023-11-19T07:25:34;99075.75;;;13.46;100.00
60240;BME280;46102;39.012;-7.064;2023-11-19T07:27:36;99079.34;;;13.47;100.00
60240;BME280;46102;39.012;-7.064;2023-11-19T07:29:37;99071.56;;;13.49;100.00
60240;BME280;46102;39.012;-7.064;2023-11-19T07:31:38;99073.66;;;13.52;100.00
60240;BME280;46102;39.012;-7.064;2023-11-19T07:33:39;99075.75;;;13.55;100.00
60240;BME280;46102;39.012;-7.064;2023-11-19T07:35:43;99080.16;;;13.56;100.00
60240;BME280;46102;39.012;-7.064;2023-11-19T07:37:44;99074.47;;;13.61;100.00
60240;BME280;46102;39.012;-7.064;2023-11-19T07:39:46;99079.81;;;13.66;100.00
60240;BME280;46102;39.012;-7.064;2023-11-19T07:41:47;99080.16;;;13.73;100.00
60240;BME280;46102;39.012;-7.064;2023-11-19T07:43:49;99079.50;;;13.77;100.00
60240;BME280;46102;39.012;-7.064;2023-11-19T07:45:51;99081.28;;;13.81;100.00
60240;BME280;46102;39.012;-7.064;2023-11-19T07:47:51;99078.84;;;13.88;100.00
60240;BME280;46102;39.012;-7.064;2023-11-19T07:49:52;99080.78;;;13.97;100.00
60240;BME280;46102;39.012;-7.064;2023-11-19T07:51:53;99082.56;;;14.01;100.00
60240;BME280;46102;39.012;-7.064;2023-11-19T07:53:54;99080.91;;;14.09;100.00
60240;BME280;46102;39.012;-7.064;2023-11-19T07:55:54;99077.34;;;14.17;100.00
60240;BME280;46102;39.012;-7.064;2023-11-19T07:57:55;99088.00;;;14.27;100.00
60240;BME280;46102;39.012;-7.064;2023-11-19T07:59:58;99082.47;;;14.36;100.00
60240;BME280;46102;39.012;-7.064;2023-11-19T08:01:58;99089.25;;;14.47;100.00
60240;BME280;46102;39.012;-7.064;2023-11-19T08:03:59;99084.22;;;14.58;100.00
60240;BME280;46102;39.012;-7.064;2023-11-19T08:06:03;99083.03;;;14.68;100.00
60240;BME280;46102;39.012;-7.064;2023-11-19T08:08:04;99084.75;;;14.81;100.00
60240;BME280;46102;39.012;-7.064;2023-11-19T08:10:05;99082.09;;;14.93;100.00
60240;BME280;46102;39.012;-7.064;2023-11-19T08:12:06;99078.13;;;15.03;100.00
60240;BME280;46102;39.012;-7.064;2023-11-19T08:14:07;99088.81;;;15.13;100.00
60240;BME280;46102;39.012;-7.064;2023-11-19T08:16:09;99082.88;;;15.24;100.00
60240;BME280;46102;39.012;-7.064;2023-11-19T08:18:10;99089.16;;;15.33;100.00
60240;BME280;46102;39.012;-7.064;2023-11-19T08:20:11;99091.06;;;15.41;100.00
60240;BME280;46102;39.012;-7.064;2023-11-19T08:22:12;99085.94;;;15.52;100.00
60240;BME280;46102;39.012;-7.064;2023-11-19T08:24:12;99080.94;;;15.66;100.00
60240;BME280;46102;39.012;-7.064;2023-11-19T08:26:14;99086.69;;;15.82;100.00
60240;BME280;46102;39.012;-7.064;2023-11-19T08:28:15;99091.94;;;15.96;100.00
60240;BME280;46102;39.012;-7.064;2023-11-19T08:30:16;99091.75;;;16.01;100.00
60240;BME280;46102;39.012;-7.064;2023-11-19T08:32:17;99097.16;;;16.10;100.00
60240;BME280;46102;39.012;-7.064;2023-11-19T08:34:17;99093.03;;;16.16;100.00
60240;BME280;46102;39.012;-7.064;2023-11-19T08:36:18;99099.06;;;16.18;100.00
60240;BME280;46102;39.012;-7.064;2023-11-19T08:38:19;99104.97;;;16.29;100.00
60240;BME280;46102;39.012;-7.064;2023-11-19T08:40:20;99106.03;;;16.36;100.00
60240;BME280;46102;39.012;-7.064;2023-11-19T08:42:21;99104.53;;;16.39;100.00
60240;BME280;46102;39.012;-7.064;2023-11-19T08:44:22;99111.47;;;16.45;100.00
60240;BME280;46102;39.012;-7.064;2023-11-19T08:46:23;99106.06;;;16.61;100.00
60240;BME280;46102;39.012;-7.064;2023-11-19T08:48:23;99110.94;;;16.76;100.00
60240;BME280;46102;39.012;-7.064;2023-11-19T08:50:24;99103.94;;;16.91;100.00
60240;BME280;46102;39.012;-7.064;2023-11-19T08:52:25;99112.38;;;17.07;100.00
60240;BME280;46102;39.012;-7.064;2023-11-19T08:54:26;99106.13;;;17.10;100.00
60240;BME280;46102;39.012;-7.064;2023-11-19T08:56:27;99107.63;;;17.20;100.00
60240;BME280;46102;39.012;-7.064;2023-11-19T08:58:32;99106.91;;;17.35;100.00
60240;BME280;46102;39.012;-7.064;2023-11-19T09:00:33;99108.03;;;17.59;100.00
60240;BME280;46102;39.012;-7.064;2023-11-19T09:02:35;99107.06;;;17.79;100.00
60240;BME280;46102;39.012;-7.064;2023-11-19T09:04:37;99110.41;;;17.85;100.00
60240;BME280;46102;39.012;-7.064;2023-11-19T09:06:38;99110.59;;;17.92;100.00
60240;BME280;46102;39.012;-7.064;2023-11-19T09:08:39;99110.38;;;17.97;100.00
60240;BME280;46102;39.012;-7.064;2023-11-19T09:10:39;99114.66;;;17.95;100.00
60240;BME280;46102;39.012;-7.064;2023-11-19T09:12:40;99110.72;;;17.96;100.00
60240;BME280;46102;39.012;-7.064;2023-11-19T09:14:41;99108.94;;;18.03;100.00
60240;BME280;46102;39.012;-7.064;2023-11-19T09:16:42;99110.03;;;18.15;100.00
60240;BME280;46102;39.012;-7.064;2023-11-19T09:18:43;99110.34;;;18.25;100.00
60240;BME280;46102;39.012;-7.064;2023-11-19T09:20:44;99111.38;;;18.33;100.00
60240;BME280;46102;39.012;-7.064;2023-11-19T09:22:46;99112.19;;;18.49;100.00
60240;BME280;46102;39.012;-7.064;2023-11-19T09:24:46;99112.38;;;18.72;100.00
60240;BME280;46102;39.012;-7.064;2023-11-19T09:26:48;99113.41;;;18.96;100.00
60240;BME280;46102;39.012;-7.064;2023-11-19T09:28:49;99110.78;;;19.19;100.00
60240;BME280;46102;39.012;-7.064;2023-11-19T09:30:50;99114.31;;;19.35;100.00
60240;BME280;46102;39.012;-7.064;2023-11-19T09:32:51;99115.03;;;19.48;100.00
60240;BME280;46102;39.012;-7.064;2023-11-19T09:34:52;99110.13;;;19.61;100.00
60240;BME280;46102;39.012;-7.064;2023-11-19T09:36:52;99105.66;;;19.72;100.00
60240;BME280;46102;39.012;-7.064;2023-11-19T09:38:53;99111.41;;;19.83;100.00
60240;BME280;46102;39.012;-7.064;2023-11-19T09:40:54;99111.41;;;20.03;100.00
60240;BME280;46102;39.012;-7.064;2023-11-19T09:42:55;99121.25;;;20.16;100.00
60240;BME280;46102;39.012;-7.064;2023-11-19T09:44:57;99119.25;;;20.16;100.00
60240;BME280;46102;39.012;-7.064;2023-11-19T09:47:00;99117.72;;;20.19;100.00
60240;BME280;46102;39.012;-7.064;2023-11-19T09:49:02;99123.50;;;20.30;100.00
60240;BME280;46102;39.012;-7.064;2023-11-19T09:51:06;99118.84;;;20.37;100.00
60240;BME280;46102;39.012;-7.064;2023-11-19T09:53:07;99125.44;;;20.49;100.00
60240;BME280;46102;39.012;-7.064;2023-11-19T09:55:08;99122.44;;;20.57;100.00
60240;BME280;46102;39.012;-7.064;2023-11-19T09:57:09;99118.53;;;20.62;100.00
60240;BME280;46102;39.012;-7.064;2023-11-19T09:59:12;99116.97;;;20.65;100.00
60240;BME280;46102;39.012;-7.064;2023-11-19T10:01:14;99121.63;;;20.80;100.00
60240;BME280;46102;39.012;-7.064;2023-11-19T10:03:16;99127.03;;;20.92;100.00
60240;BME280;46102;39.012;-7.064;2023-11-19T10:05:17;99127.59;;;21.02;100.00
60240;BME280;46102;39.012;-7.064;2023-11-19T10:07:21;99120.66;;;21.18;100.00
60240;BME280;46102;39.012;-7.064;2023-11-19T10:09:22;99117.31;;;21.32;100.00
60240;BME280;46102;39.012;-7.064;2023-11-19T10:11:23;99123.13;;;21.47;100.00
60240;BME280;46102;39.012;-7.064;2023-11-19T10:13:27;99122.53;;;21.60;100.00
60240;BME280;46102;39.012;-7.064;2023-11-19T10:15:35;99124.34;;;21.76;100.00
60240;BME280;46102;39.012;-7.064;2023-11-19T10:17:37;99118.50;;;21.88;100.00
60240;BME280;46102;39.012;-7.064;2023-11-19T10:19:40;99119.78;;;21.94;100.00
60240;BME280;46102;39.012;-7.064;2023-11-19T10:21:41;99115.69;;;21.88;100.00
60240;BME280;46102;39.012;-7.064;2023-11-19T10:23:55;99118.47;;;21.85;100.00
60240;BME280;46102;39.012;-7.064;2023-11-19T10:26:04;99114.72;;;21.73;100.00
60240;BME280;46102;39.012;-7.064;2023-11-19T10:28:07;99115.59;;;21.77;100.00